sensor_id;sensor_type;location;lat;lon;timestamp;temperature;humidity
16114;DHT22;8161;-33.910;151.156;2023-02-03T00:02:03;27.50;99.90
16114;DHT22;8161;-33.910;151.156;2023-02-03T00:04:30;27.20;99.90
16114;DHT22;8161;-33.910;151.156;2023-02-03T00:06:57;27.20;99.90
16114;DHT22;8161;-33.910;151.156;2023-02-03T00:09:25;27.10;99.90
16114;DHT22;8161;-33.910;151.156;2023-02-03T00:11:53;27.50;99.90
16114;DHT22;8161;-33.910;151.156;2023-02-03T00:14:20;27.70;99.90
16114;DHT22;8161;-33.910;151.156;2023-02-03T00:16:47;28.10;99.90
16114;DHT22;8161;-33.910;151.156;2023-02-03T00:19:15;27.50;99.90
16114;DHT22;8161;-33.910;151.156;2023-02-03T00:21:42;27.80;99.90
16114;DHT22;8161;-33.910;151.156;2023-02-03T00:24:09;27.60;99.90
16114;DHT22;8161;-33.910;151.156;2023-02-03T00:26:41;27.80;99.90
16114;DHT22;8161;-33.910;151.156;2023-02-03T00:29:09;27.70;99.90
16114;DHT22;8161;-33.910;151.156;2023-02-03T00:31:36;27.90;99.90
16114;DHT22;8161;-33.910;151.156;2023-02-03T00:34:04;27.80;99.90
16114;DHT22;8161;-33.910;151.156;2023-02-03T00:36:31;27.80;99.90
16114;DHT22;8161;-33.910;151.156;2023-02-03T00:38:59;27.80;99.90
16114;DHT22;8161;-33.910;151.156;2023-02-03T00:41:29;28.30;99.90
16114;DHT22;8161;-33.910;151.156;2023-02-03T00:43:57;27.90;99.90
16114;DHT22;8161;-33.910;151.156;2023-02-03T00:46:24;28.00;99.90
16114;DHT22;8161;-33.910;151.156;2023-02-03T00:48:51;28.40;99.90
16114;DHT22;8161;-33.910;151.156;2023-02-03T00:51:19;28.10;99.90
16114;DHT22;8161;-33.910;151.156;2023-02-03T00:53:48;28.20;99.90
16114;DHT22;8161;-33.910;151.156;2023-02-03T00:56:15;28.30;99.90
16114;DHT22;8161;-33.910;151.156;2023-02-03T00:58:42;28.10;99.90
16114;DHT22;8161;-33.910;151.156;2023-02-03T01:01:10;28.50;99.90
16114;DHT22;8161;-33.910;151.156;2023-02-03T01:03:37;28.10;99.90
16114;DHT22;8161;-33.910;151.156;2023-02-03T01:06:19;28.30;99.90
16114;DHT22;8161;-33.910;151.156;2023-02-03T01:08:47;27.60;99.90
16114;DHT22;8161;-33.910;151.156;2023-02-03T01:11:19;28.00;99.90
16114;DHT22;8161;-33.910;151.156;2023-02-03T01:13:47;28.50;99.90
16114;DHT22;8161;-33.910;151.156;2023-02-03T01:16:17;28.50;99.90
16114;DHT22;8161;-33.910;151.156;2023-02-03T01:18:45;29.10;99.90
16114;DHT22;8161;-33.910;151.156;2023-02-03T01:21:18;28.70;99.90
16114;DHT22;8161;-33.910;151.156;2023-02-03T01:23:50;29.00;99.90
16114;DHT22;8161;-33.910;151.156;2023-02-03T01:26:20;29.30;99.90
16114;DHT22;8161;-33.910;151.156;2023-02-03T01:29:06;28.90;99.90
16114;DHT22;8161;-33.910;151.156;2023-02-03T01:31:38;29.10;99.90
16114;DHT22;8161;-33.910;151.156;2023-02-03T01:34:07;29.00;99.90
16114;DHT22;8161;-33.910;151.156;2023-02-03T01:36:37;30.10;99.90
16114;DHT22;8161;-33.910;151.156;2023-02-03T01:39:05;29.60;99.90
16114;DHT22;8161;-33.910;151.156;2023-02-03T01:41:35;29.60;99.90
16114;DHT22;8161;-33.910;151.156;2023-02-03T01:47:28;29.60;99.90
16114;DHT22;8161;-33.910;151.156;2023-02-03T01:50:06;29.80;99.90
16114;DHT22;8161;-33.910;151.156;2023-02-03T01:52:35;30.10;99.90
16114;DHT22;8161;-33.910;151.156;2023-02-03T01:55:04;30.00;99.90
16114;DHT22;8161;-33.910;151.156;2023-02-03T02:00:19;30.10;99.10
16114;DHT22;8161;-33.910;151.156;2023-02-03T02:02:48;30.00;99.90
16114;DHT22;8161;-33.910;151.156;2023-02-03T02:08:09;29.70;99.90
16114;DHT22;8161;-33.910;151.156;2023-02-03T02:10:39;29.80;99.90
16114;DHT22;8161;-33.910;151.156;2023-02-03T02:13:06;29.80;99.90
16114;DHT22;8161;-33.910;151.156;2023-02-03T02:15:53;30.40;99.90
16114;DHT22;8161;-33.910;151.156;2023-02-03T02:41:08;30.50;98.50
16114;DHT22;8161;-33.910;151.156;2023-02-03T02:43:56;30.80;99.90
16114;DHT22;8161;-33.910;151.156;2023-02-03T02:46:40;30.00;99.90
16114;DHT22;8161;-33.910;151.156;2023-02-03T02:51:46;30.20;99.90
16114;DHT22;8161;-33.910;151.156;2023-02-03T02:54:20;30.60;97.80
16114;DHT22;8161;-33.910;151.156;2023-02-03T02:56:55;30.30;99.90
16114;DHT22;8161;-33.910;151.156;2023-02-03T02:59:25;30.60;97.80
16114;DHT22;8161;-33.910;151.156;2023-02-03T03:01:52;31.00;99.90
16114;DHT22;8161;-33.910;151.156;2023-02-03T03:04:26;30.60;99.90
16114;DHT22;8161;-33.910;151.156;2023-02-03T03:09:30;31.00;99.90
16114;DHT22;8161;-33.910;151.156;2023-02-03T03:12:18;31.50;99.90
16114;DHT22;8161;-33.910;151.156;2023-02-03T03:14:56;31.50;99.00
16114;DHT22;8161;-33.910;151.156;2023-02-03T03:17:30;31.30;99.40
16114;DHT22;8161;-33.910;151.156;2023-02-03T03:20:03;31.90;99.70
16114;DHT22;8161;-33.910;151.156;2023-02-03T03:22:41;31.80;96.90
16114;DHT22;8161;-33.910;151.156;2023-02-03T03:25:16;32.30;98.90
16114;DHT22;8161;-33.910;151.156;2023-02-03T03:27:58;32.20;98.00
16114;DHT22;8161;-33.910;151.156;2023-02-03T03:30:33;32.10;98.10
16114;DHT22;8161;-33.910;151.156;2023-02-03T03:33:02;32.10;97.70
16114;DHT22;8161;-33.910;151.156;2023-02-03T03:35:37;32.40;97.80
16114;DHT22;8161;-33.910;151.156;2023-02-03T03:38:21;31.50;97.60
16114;DHT22;8161;-33.910;151.156;2023-02-03T03:40:57;32.40;98.50
16114;DHT22;8161;-33.910;151.156;2023-02-03T03:43:29;32.30;96.40
16114;DHT22;8161;-33.910;151.156;2023-02-03T03:46:11;33.10;98.70
16114;DHT22;8161;-33.910;151.156;2023-02-03T03:51:40;32.30;96.00
16114;DHT22;8161;-33.910;151.156;2023-02-03T03:54:12;32.30;96.80
16114;DHT22;8161;-33.910;151.156;2023-02-03T03:59:18;33.00;97.60
16114;DHT22;8161;-33.910;151.156;2023-02-03T04:01:48;33.20;99.80
16114;DHT22;8161;-33.910;151.156;2023-02-03T04:04:17;33.20;99.90
16114;DHT22;8161;-33.910;151.156;2023-02-03T04:06:45;33.80;99.50
16114;DHT22;8161;-33.910;151.156;2023-02-03T04:09:13;33.20;99.90
16114;DHT22;8161;-33.910;151.156;2023-02-03T04:11:40;33.00;99.90
16114;DHT22;8161;-33.910;151.156;2023-02-03T04:14:21;33.00;99.80
16114;DHT22;8161;-33.910;151.156;2023-02-03T04:16:48;32.60;99.90
16114;DHT22;8161;-33.910;151.156;2023-02-03T04:19:16;32.80;97.70
16114;DHT22;8161;-33.910;151.156;2023-02-03T04:21:43;32.70;98.50
16114;DHT22;8161;-33.910;151.156;2023-02-03T04:24:10;32.60;99.90
16114;DHT22;8161;-33.910;151.156;2023-02-03T04:26:39;32.20;99.90
16114;DHT22;8161;-33.910;151.156;2023-02-03T04:29:06;32.10;99.90
16114;DHT22;8161;-33.910;151.156;2023-02-03T04:31:33;32.00;99.90
16114;DHT22;8161;-33.910;151.156;2023-02-03T04:34:01;31.20;99.90
16114;DHT22;8161;-33.910;151.156;2023-02-03T04:36:28;30.80;99.90
16114;DHT22;8161;-33.910;151.156;2023-02-03T04:38:55;31.20;99.90
16114;DHT22;8161;-33.910;151.156;2023-02-03T04:41:23;30.70;99.90
16114;DHT22;8161;-33.910;151.156;2023-02-03T04:43:51;31.30;99.90
16114;DHT22;8161;-33.910;151.156;2023-02-03T04:46:20;31.20;99.90
16114;DHT22;8161;-33.910;151.156;2023-02-03T04:48:47;31.50;99.90
16114;DHT22;8161;-33.910;151.156;2023-02-03T04:51:15;32.20;99.90
16114;DHT22;8161;-33.910;151.156;2023-02-03T04:53:42;31.90;99.90
16114;DHT22;8161;-33.910;151.156;2023-02-03T04:56:09;32.30;99.90
16114;DHT22;8161;-33.910;151.156;2023-02-03T04:58:36;32.40;99.90
16114;DHT22;8161;-33.910;151.156;2023-02-03T05:01:08;32.60;99.90
16114;DHT22;8161;-33.910;151.156;2023-02-03T05:03:35;31.90;99.90
16114;DHT22;8161;-33.910;151.156;2023-02-03T05:06:03;31.60;99.90
16114;DHT22;8161;-33.910;151.156;2023-02-03T05:08:30;31.80;99.90
16114;DHT22;8161;-33.910;151.156;2023-02-03T05:10:58;31.70;99.90
16114;DHT22;8161;-33.910;151.156;2023-02-03T05:13:25;32.60;99.90
16114;DHT22;8161;-33.910;151.156;2023-02-03T05:15:52;32.80;99.90
16114;DHT22;8161;-33.910;151.156;2023-02-03T05:18:20;32.50;99.90
16114;DHT22;8161;-33.910;151.156;2023-02-03T05:20:47;32.90;99.90
16114;DHT22;8161;-33.910;151.156;2023-02-03T05:23:14;33.10;99.90
16114;DHT22;8161;-33.910;151.156;2023-02-03T05:25:43;33.10;99.90
16114;DHT22;8161;-33.910;151.156;2023-02-03T05:28:10;32.50;99.90
16114;DHT22;8161;-33.910;151.156;2023-02-03T05:30:38;32.50;99.90
16114;DHT22;8161;-33.910;151.156;2023-02-03T05:33:05;32.60;99.80
16114;DHT22;8161;-33.910;151.156;2023-02-03T05:35:33;32.70;99.90
16114;DHT22;8161;-33.910;151.156;2023-02-03T05:38:00;33.30;99.90
16114;DHT22;8161;-33.910;151.156;2023-02-03T05:40:27;32.90;99.50
16114;DHT22;8161;-33.910;151.156;2023-02-03T05:43:08;32.80;99.90
16114;DHT22;8161;-33.910;151.156;2023-02-03T05:45:35;32.90;99.90
16114;DHT22;8161;-33.910;151.156;2023-02-03T05:48:03;33.20;99.10
16114;DHT22;8161;-33.910;151.156;2023-02-03T05:50:31;33.80;99.90
16114;DHT22;8161;-33.910;151.156;2023-02-03T05:53:04;33.40;99.90
16114;DHT22;8161;-33.910;151.156;2023-02-03T05:55:32;33.90;99.90
16114;DHT22;8161;-33.910;151.156;2023-02-03T05:58:00;33.30;99.90
16114;DHT22;8161;-33.910;151.156;2023-02-03T06:00:28;34.00;99.90
16114;DHT22;8161;-33.910;151.156;2023-02-03T06:02:57;33.80;99.00
16114;DHT22;8161;-33.910;151.156;2023-02-03T06:05:25;34.50;99.90
16114;DHT22;8161;-33.910;151.156;2023-02-03T06:07:53;34.20;99.90
16114;DHT22;8161;-33.910;151.156;2023-02-03T06:10:21;33.70;99.90
16114;DHT22;8161;-33.910;151.156;2023-02-03T06:12:49;33.80;99.90
16114;DHT22;8161;-33.910;151.156;2023-02-03T06:15:17;34.20;99.80
16114;DHT22;8161;-33.910;151.156;2023-02-03T06:17:48;33.80;99.90
16114;DHT22;8161;-33.910;151.156;2023-02-03T06:20:17;33.90;98.80
16114;DHT22;8161;-33.910;151.156;2023-02-03T06:22:45;34.00;97.60
16114;DHT22;8161;-33.910;151.156;2023-02-03T06:25:16;34.10;99.80
16114;DHT22;8161;-33.910;151.156;2023-02-03T06:27:43;33.40;99.70
16114;DHT22;8161;-33.910;151.156;2023-02-03T06:30:11;34.10;99.80
16114;DHT22;8161;-33.910;151.156;2023-02-03T06:32:38;34.00;99.40
16114;DHT22;8161;-33.910;151.156;2023-02-03T06:35:05;33.80;99.10
16114;DHT22;8161;-33.910;151.156;2023-02-03T06:37:33;34.20;98.90
16114;DHT22;8161;-33.910;151.156;2023-02-03T06:40:04;34.40;99.00
16114;DHT22;8161;-33.910;151.156;2023-02-03T06:42:31;33.70;98.40
16114;DHT22;8161;-33.910;151.156;2023-02-03T06:44:59;33.50;98.30
16114;DHT22;8161;-33.910;151.156;2023-02-03T06:47:28;34.00;98.50
16114;DHT22;8161;-33.910;151.156;2023-02-03T06:49:55;33.90;96.40
16114;DHT22;8161;-33.910;151.156;2023-02-03T06:52:22;33.40;98.50
16114;DHT22;8161;-33.910;151.156;2023-02-03T06:54:49;33.20;99.10
16114;DHT22;8161;-33.910;151.156;2023-02-03T06:57:17;33.10;99.20
16114;DHT22;8161;-33.910;151.156;2023-02-03T06:59:44;32.70;99.00
16114;DHT22;8161;-33.910;151.156;2023-02-03T07:02:11;32.70;99.50
16114;DHT22;8161;-33.910;151.156;2023-02-03T07:04:38;31.70;99.30
16114;DHT22;8161;-33.910;151.156;2023-02-03T07:07:06;31.30;99.90
16114;DHT22;8161;-33.910;151.156;2023-02-03T07:09:33;31.30;99.90
16114;DHT22;8161;-33.910;151.156;2023-02-03T07:12:00;31.30;98.60
16114;DHT22;8161;-33.910;151.156;2023-02-03T07:14:27;31.10;99.90
16114;DHT22;8161;-33.910;151.156;2023-02-03T07:16:57;31.30;99.90
16114;DHT22;8161;-33.910;151.156;2023-02-03T07:19:24;30.60;99.90
16114;DHT22;8161;-33.910;151.156;2023-02-03T07:21:52;30.70;99.60
16114;DHT22;8161;-33.910;151.156;2023-02-03T07:24:19;30.50;99.90
16114;DHT22;8161;-33.910;151.156;2023-02-03T07:26:46;30.30;99.90
16114;DHT22;8161;-33.910;151.156;2023-02-03T07:29:13;29.80;99.90
16114;DHT22;8161;-33.910;151.156;2023-02-03T07:31:40;29.00;99.90
16114;DHT22;8161;-33.910;151.156;2023-02-03T07:34:08;29.40;99.90
16114;DHT22;8161;-33.910;151.156;2023-02-03T07:36:35;29.40;99.90
16114;DHT22;8161;-33.910;151.156;2023-02-03T07:39:02;28.80;99.90
16114;DHT22;8161;-33.910;151.156;2023-02-03T07:41:30;29.20;99.90
16114;DHT22;8161;-33.910;151.156;2023-02-03T07:43:57;29.20;99.90
16114;DHT22;8161;-33.910;151.156;2023-02-03T07:46:24;29.10;99.90
16114;DHT22;8161;-33.910;151.156;2023-02-03T07:48:51;28.80;99.90
16114;DHT22;8161;-33.910;151.156;2023-02-03T07:51:19;28.60;99.90
16114;DHT22;8161;-33.910;151.156;2023-02-03T07:53:46;28.70;99.90
16114;DHT22;8161;-33.910;151.156;2023-02-03T07:56:13;28.80;99.90
16114;DHT22;8161;-33.910;151.156;2023-02-03T07:58:41;29.30;99.90
16114;DHT22;8161;-33.910;151.156;2023-02-03T08:01:14;29.60;99.90
16114;DHT22;8161;-33.910;151.156;2023-02-03T08:03:42;28.90;99.90
16114;DHT22;8161;-33.910;151.156;2023-02-03T08:06:09;28.90;99.90
16114;DHT22;8161;-33.910;151.156;2023-02-03T08:08:36;28.80;99.90
16114;DHT22;8161;-33.910;151.156;2023-02-03T08:11:04;27.80;99.90
16114;DHT22;8161;-33.910;151.156;2023-02-03T08:13:31;28.40;99.90
16114;DHT22;8161;-33.910;151.156;2023-02-03T08:15:58;27.90;99.90
16114;DHT22;8161;-33.910;151.156;2023-02-03T08:18:26;27.70;99.90
16114;DHT22;8161;-33.910;151.156;2023-02-03T08:20:53;27.30;99.90
16114;DHT22;8161;-33.910;151.156;2023-02-03T08:23:21;27.60;99.90
16114;DHT22;8161;-33.910;151.156;2023-02-03T08:25:52;27.60;99.90
16114;DHT22;8161;-33.910;151.156;2023-02-03T08:28:19;27.20;99.90
16114;DHT22;8161;-33.910;151.156;2023-02-03T08:30:47;28.00;99.90
16114;DHT22;8161;-33.910;151.156;2023-02-03T08:33:14;27.50;99.90
16114;DHT22;8161;-33.910;151.156;2023-02-03T08:35:45;27.40;99.90
16114;DHT22;8161;-33.910;151.156;2023-02-03T08:38:13;27.30;99.90
16114;DHT22;8161;-33.910;151.156;2023-02-03T08:40:40;27.00;99.90
16114;DHT22;8161;-33.910;151.156;2023-02-03T08:43:08;27.40;99.90
16114;DHT22;8161;-33.910;151.156;2023-02-03T08:45:38;26.80;99.90
16114;DHT22;8161;-33.910;151.156;2023-02-03T08:48:05;26.80;99.90
16114;DHT22;8161;-33.910;151.156;2023-02-03T08:50:32;26.70;99.90
16114;DHT22;8161;-33.910;151.156;2023-02-03T08:53:00;26.90;99.90
16114;DHT22;8161;-33.910;151.156;2023-02-03T08:55:27;26.90;99.90
16114;DHT22;8161;-33.910;151.156;2023-02-03T08:57:54;26.30;99.90
16114;DHT22;8161;-33.910;151.156;2023-02-03T09:00:22;26.70;99.90
16114;DHT22;8161;-33.910;151.156;2023-02-03T09:02:49;26.50;99.90
16114;DHT22;8161;-33.910;151.156;2023-02-03T09:05:16;26.70;99.90
16114;DHT22;8161;-33.910;151.156;2023-02-03T09:07:44;26.30;99.90
16114;DHT22;8161;-33.910;151.156;2023-02-03T09:10:12;27.10;99.90
16114;DHT22;8161;-33.910;151.156;2023-02-03T09:12:39;26.60;99.90
16114;DHT22;8161;-33.910;151.156;2023-02-03T09:15:06;26.40;99.90
16114;DHT22;8161;-33.910;151.156;2023-02-03T09:17:34;26.60;99.90
16114;DHT22;8161;-33.910;151.156;2023-02-03T09:20:02;26.50;99.90
16114;DHT22;8161;-33.910;151.156;2023-02-03T09:22:29;26.60;99.90
16114;DHT22;8161;-33.910;151.156;2023-02-03T09:24:56;26.60;99.90
16114;DHT22;8161;-33.910;151.156;2023-02-03T09:27:23;26.40;99.90
16114;DHT22;8161;-33.910;151.156;2023-02-03T09:29:51;26.20;99.90
16114;DHT22;8161;-33.910;151.156;2023-02-03T09:32:18;26.30;99.90
16114;DHT22;8161;-33.910;151.156;2023-02-03T09:34:48;26.50;99.90
16114;DHT22;8161;-33.910;151.156;2023-02-03T09:37:15;26.60;99.90
16114;DHT22;8161;-33.910;151.156;2023-02-03T09:39:42;26.00;99.90
16114;DHT22;8161;-33.910;151.156;2023-02-03T09:45:28;26.40;99.90
16114;DHT22;8161;-33.910;151.156;2023-02-03T09:48:25;25.90;99.90
16114;DHT22;8161;-33.910;151.156;2023-02-03T09:50:56;26.20;99.90
16114;DHT22;8161;-33.910;151.156;2023-02-03T09:54:00;26.30;99.90
16114;DHT22;8161;-33.910;151.156;2023-02-03T09:56:35;25.60;99.90
16114;DHT22;8161;-33.910;151.156;2023-02-03T09:59:03;26.00;99.90
16114;DHT22;8161;-33.910;151.156;2023-02-03T10:01:39;26.40;99.90
16114;DHT22;8161;-33.910;151.156;2023-02-03T10:04:25;25.80;99.90
16114;DHT22;8161;-33.910;151.156;2023-02-03T10:07:08;26.30;99.90
16114;DHT22;8161;-33.910;151.156;2023-02-03T10:09:53;26.30;99.90
16114;DHT22;8161;-33.910;151.156;2023-02-03T10:17:46;26.10;99.90
16114;DHT22;8161;-33.910;151.156;2023-02-03T10:22:58;25.80;99.90
16114;DHT22;8161;-33.910;151.156;2023-02-03T10:25:41;25.90;99.90
16114;DHT22;8161;-33.910;151.156;2023-02-03T10:28:37;25.60;99.90
16114;DHT22;8161;-33.910;151.156;2023-02-03T10:31:18;25.80;99.90
16114;DHT22;8161;-33.910;151.156;2023-02-03T10:33:47;26.00;99.90
16114;DHT22;8161;-33.910;151.156;2023-02-03T10:36:19;25.60;99.90
16114;DHT22;8161;-33.910;151.156;2023-02-03T10:41:17;26.00;99.90
16114;DHT22;8161;-33.910;151.156;2023-02-03T10:43:45;26.30;99.90
16114;DHT22;8161;-33.910;151.156;2023-02-03T10:48:46;25.50;99.90
16114;DHT22;8161;-33.910;151.156;2023-02-03T10:51:24;26.00;99.90
16114;DHT22;8161;-33.910;151.156;2023-02-03T10:53:52;26.10;99.90
16114;DHT22;8161;-33.910;151.156;2023-02-03T10:56:39;25.60;99.90
16114;DHT22;8161;-33.910;151.156;2023-02-03T10:59:28;26.00;99.90
16114;DHT22;8161;-33.910;151.156;2023-02-03T11:01:56;25.60;99.90
16114;DHT22;8161;-33.910;151.156;2023-02-03T11:04:30;26.10;99.90
16114;DHT22;8161;-33.910;151.156;2023-02-03T11:07:08;26.00;99.90
16114;DHT22;8161;-33.910;151.156;2023-02-03T11:09:48;26.00;99.90
16114;DHT22;8161;-33.910;151.156;2023-02-03T11:12:18;25.90;99.90
16114;DHT22;8161;-33.910;151.156;2023-02-03T11:14:53;26.10;99.90
16114;DHT22;8161;-33.910;151.156;2023-02-03T11:17:23;26.00;99.90
16114;DHT22;8161;-33.910;151.156;2023-02-03T11:20:03;25.90;99.90
16114;DHT22;8161;-33.910;151.156;2023-02-03T11:22:40;26.30;99.90
16114;DHT22;8161;-33.910;151.156;2023-02-03T11:25:26;25.80;99.90
16114;DHT22;8161;-33.910;151.156;2023-02-03T11:27:55;25.60;99.90
16114;DHT22;8161;-33.910;151.156;2023-02-03T11:30:29;25.50;99.90
16114;DHT22;8161;-33.910;151.156;2023-02-03T11:32:59;25.80;99.90
16114;DHT22;8161;-33.910;151.156;2023-02-03T11:35:28;26.20;99.90
16114;DHT22;8161;-33.910;151.156;2023-02-03T11:37:59;25.70;99.90
16114;DHT22;8161;-33.910;151.156;2023-02-03T11:40:32;25.80;99.90
16114;DHT22;8161;-33.910;151.156;2023-02-03T11:43:13;25.60;99.90
16114;DHT22;8161;-33.910;151.156;2023-02-03T11:45:50;25.60;99.90
16114;DHT22;8161;-33.910;151.156;2023-02-03T11:48:34;26.20;99.90
16114;DHT22;8161;-33.910;151.156;2023-02-03T11:56:58;25.70;99.90
16114;DHT22;8161;-33.910;151.156;2023-02-03T11:59:51;25.60;99.90
16114;DHT22;8161;-33.910;151.156;2023-02-03T12:05:18;25.80;99.90
16114;DHT22;8161;-33.910;151.156;2023-02-03T12:13:39;25.60;99.90
16114;DHT22;8161;-33.910;151.156;2023-02-03T12:21:42;26.00;99.90
16114;DHT22;8161;-33.910;151.156;2023-02-03T12:27:11;25.70;99.90
16114;DHT22;8161;-33.910;151.156;2023-02-03T12:29:44;25.50;99.90
16114;DHT22;8161;-33.910;151.156;2023-02-03T12:35:12;26.10;99.90
16114;DHT22;8161;-33.910;151.156;2023-02-03T12:37:47;25.80;99.90
16114;DHT22;8161;-33.910;151.156;2023-02-03T12:46:11;25.50;99.90
16114;DHT22;8161;-33.910;151.156;2023-02-03T12:48:53;25.10;99.90
16114;DHT22;8161;-33.910;151.156;2023-02-03T12:51:32;25.20;99.90
16114;DHT22;8161;-33.910;151.156;2023-02-03T12:54:22;25.50;99.90
16114;DHT22;8161;-33.910;151.156;2023-02-03T12:56:56;25.00;99.90
16114;DHT22;8161;-33.910;151.156;2023-02-03T12:59:26;25.60;99.90
16114;DHT22;8161;-33.910;151.156;2023-02-03T13:02:10;25.20;99.90
16114;DHT22;8161;-33.910;151.156;2023-02-03T13:04:51;25.20;99.90
16114;DHT22;8161;-33.910;151.156;2023-02-03T13:12:56;25.30;99.90
16114;DHT22;8161;-33.910;151.156;2023-02-03T13:15:34;25.20;99.90
16114;DHT22;8161;-33.910;151.156;2023-02-03T13:20:45;24.90;99.90
16114;DHT22;8161;-33.910;151.156;2023-02-03T13:23:13;25.00;99.90
16114;DHT22;8161;-33.910;151.156;2023-02-03T13:42:31;24.60;99.90
16114;DHT22;8161;-33.910;151.156;2023-02-03T13:47:46;24.20;99.90
16114;DHT22;8161;-33.910;151.156;2023-02-03T13:50:28;23.90;99.90
16114;DHT22;8161;-33.910;151.156;2023-02-03T13:55:29;23.80;99.90
16114;DHT22;8161;-33.910;151.156;2023-02-03T13:58:01;23.90;99.90
16114;DHT22;8161;-33.910;151.156;2023-02-03T14:06:53;23.90;99.90
16114;DHT22;8161;-33.910;151.156;2023-02-03T14:09:01;24.00;99.90
16114;DHT22;8161;-33.910;151.156;2023-02-03T14:16:49;24.10;99.90
16114;DHT22;8161;-33.910;151.156;2023-02-03T14:22:04;23.60;99.90
16114;DHT22;8161;-33.910;151.156;2023-02-03T14:24:34;23.60;99.90
16114;DHT22;8161;-33.910;151.156;2023-02-03T14:27:07;23.70;99.90
16114;DHT22;8161;-33.910;151.156;2023-02-03T14:29:42;23.80;99.90
16114;DHT22;8161;-33.910;151.156;2023-02-03T14:32:11;24.00;99.90
16114;DHT22;8161;-33.910;151.156;2023-02-03T14:34:46;24.00;99.90
16114;DHT22;8161;-33.910;151.156;2023-02-03T14:37:32;23.60;99.90
16114;DHT22;8161;-33.910;151.156;2023-02-03T14:45:53;23.40;99.90
16114;DHT22;8161;-33.910;151.156;2023-02-03T15:00:01;23.80;99.90
16114;DHT22;8161;-33.910;151.156;2023-02-03T15:02:32;23.10;99.90
16114;DHT22;8161;-33.910;151.156;2023-02-03T15:07:48;23.70;99.80
16114;DHT22;8161;-33.910;151.156;2023-02-03T15:12:50;23.80;98.20
16114;DHT22;8161;-33.910;151.156;2023-02-03T15:15:25;23.40;94.60
16114;DHT22;8161;-33.910;151.156;2023-02-03T15:17:55;23.20;97.70
16114;DHT22;8161;-33.910;151.156;2023-02-03T15:23:00;23.60;97.70
16114;DHT22;8161;-33.910;151.156;2023-02-03T15:25:30;23.10;94.60
16114;DHT22;8161;-33.910;151.156;2023-02-03T15:28:12;23.60;97.60
16114;DHT22;8161;-33.910;151.156;2023-02-03T15:30:42;23.40;94.20
16114;DHT22;8161;-33.910;151.156;2023-02-03T15:33:16;23.00;97.70
16114;DHT22;8161;-33.910;151.156;2023-02-03T15:35:48;23.30;93.60
16114;DHT22;8161;-33.910;151.156;2023-02-03T15:38:26;23.20;93.70
16114;DHT22;8161;-33.910;151.156;2023-02-03T15:40:56;23.30;97.20
16114;DHT22;8161;-33.910;151.156;2023-02-03T15:48:49;22.80;97.50
16114;DHT22;8161;-33.910;151.156;2023-02-03T15:51:29;22.70;97.60
16114;DHT22;8161;-33.910;151.156;2023-02-03T15:56:43;22.80;97.30
16114;DHT22;8161;-33.910;151.156;2023-02-03T15:59:31;22.80;97.60
16114;DHT22;8161;-33.910;151.156;2023-02-03T16:02:05;22.50;97.30
16114;DHT22;8161;-33.910;151.156;2023-02-03T16:04:35;23.10;97.90
16114;DHT22;8161;-33.910;151.156;2023-02-03T16:07:02;22.50;96.80
16114;DHT22;8161;-33.910;151.156;2023-02-03T16:09:38;22.60;97.20
16114;DHT22;8161;-33.910;151.156;2023-02-03T16:12:21;22.80;96.90
16114;DHT22;8161;-33.910;151.156;2023-02-03T16:14:49;22.60;97.00
16114;DHT22;8161;-33.910;151.156;2023-02-03T16:27:44;22.70;97.80
16114;DHT22;8161;-33.910;151.156;2023-02-03T16:35:44;22.40;96.90
16114;DHT22;8161;-33.910;151.156;2023-02-03T16:38:25;22.60;93.30
16114;DHT22;8161;-33.910;151.156;2023-02-03T16:41:15;22.70;97.40
16114;DHT22;8161;-33.910;151.156;2023-02-03T16:43:56;22.80;97.50
16114;DHT22;8161;-33.910;151.156;2023-02-03T16:46:37;22.60;97.50
16114;DHT22;8161;-33.910;151.156;2023-02-03T16:49:17;22.50;97.70
16114;DHT22;8161;-33.910;151.156;2023-02-03T16:51:58;22.50;97.70
16114;DHT22;8161;-33.910;151.156;2023-02-03T16:54:27;22.20;97.70
16114;DHT22;8161;-33.910;151.156;2023-02-03T16:56:54;22.40;96.30
16114;DHT22;8161;-33.910;151.156;2023-02-03T16:59:21;22.20;97.70
16114;DHT22;8161;-33.910;151.156;2023-02-03T17:01:49;22.50;98.20
16114;DHT22;8161;-33.910;151.156;2023-02-03T17:04:16;22.20;94.10
16114;DHT22;8161;-33.910;151.156;2023-02-03T17:06:44;22.60;98.40
16114;DHT22;8161;-33.910;151.156;2023-02-03T17:09:11;22.10;98.50
16114;DHT22;8161;-33.910;151.156;2023-02-03T17:11:38;22.30;98.50
16114;DHT22;8161;-33.910;151.156;2023-02-03T17:14:06;22.40;99.20
16114;DHT22;8161;-33.910;151.156;2023-02-03T17:16:34;22.60;99.20
16114;DHT22;8161;-33.910;151.156;2023-02-03T17:19:02;22.60;99.10
16114;DHT22;8161;-33.910;151.156;2023-02-03T17:21:29;22.00;99.80
16114;DHT22;8161;-33.910;151.156;2023-02-03T17:23:58;22.60;99.90
16114;DHT22;8161;-33.910;151.156;2023-02-03T17:26:26;22.70;99.90
16114;DHT22;8161;-33.910;151.156;2023-02-03T17:28:56;22.00;99.90
16114;DHT22;8161;-33.910;151.156;2023-02-03T17:31:29;22.40;99.70
16114;DHT22;8161;-33.910;151.156;2023-02-03T17:33:57;22.60;99.90
16114;DHT22;8161;-33.910;151.156;2023-02-03T17:36:25;22.10;99.90
16114;DHT22;8161;-33.910;151.156;2023-02-03T17:38:55;22.50;99.80
16114;DHT22;8161;-33.910;151.156;2023-02-03T17:41:24;22.60;99.90
16114;DHT22;8161;-33.910;151.156;2023-02-03T17:43:53;22.10;99.90
16114;DHT22;8161;-33.910;151.156;2023-02-03T17:46:23;21.90;99.90
16114;DHT22;8161;-33.910;151.156;2023-02-03T17:48:51;22.30;97.20
16114;DHT22;8161;-33.910;151.156;2023-02-03T17:51:21;22.40;99.90
16114;DHT22;8161;-33.910;151.156;2023-02-03T17:53:51;22.30;99.90
16114;DHT22;8161;-33.910;151.156;2023-02-03T17:56:21;22.00;99.90
16114;DHT22;8161;-33.910;151.156;2023-02-03T17:58:55;22.10;99.90
16114;DHT22;8161;-33.910;151.156;2023-02-03T18:01:23;21.50;99.90
16114;DHT22;8161;-33.910;151.156;2023-02-03T18:04:02;21.90;99.90
16114;DHT22;8161;-33.910;151.156;2023-02-03T18:06:31;21.50;99.90
16114;DHT22;8161;-33.910;151.156;2023-02-03T18:09:06;21.50;99.90
16114;DHT22;8161;-33.910;151.156;2023-02-03T18:11:36;21.30;99.90
16114;DHT22;8161;-33.910;151.156;2023-02-03T18:14:04;21.10;99.90
16114;DHT22;8161;-33.910;151.156;2023-02-03T18:16:33;21.30;99.90
16114;DHT22;8161;-33.910;151.156;2023-02-03T18:19:04;21.00;99.90
16114;DHT22;8161;-33.910;151.156;2023-02-03T18:21:32;21.30;99.90
16114;DHT22;8161;-33.910;151.156;2023-02-03T18:24:00;21.30;99.90
16114;DHT22;8161;-33.910;151.156;2023-02-03T18:26:30;20.90;99.90
16114;DHT22;8161;-33.910;151.156;2023-02-03T18:29:00;21.10;99.90
16114;DHT22;8161;-33.910;151.156;2023-02-03T18:31:28;20.90;99.90